Crisp County Cordele Airport


Codes: KCKF/
Name: Crisp County Cordele Airport
City: Cordele
Country: United States
Elevation: 310 ft.

Photos at Crisp County Cordele Airport


   Photos courtesy of SpottingLog. You can add your own sightings and photos by signing up for a free trial today.



No photos found.

Weather at Crisp County Cordele Airport


Time (UTC)DescriptionTempratureWindCloud coverageVisibilityPressureHumidity
21-Feb-2024 03:00Clear Sky10°C0 mph, E0%10000m1025hPa49%
21-Feb-2024 06:00Clear Sky9°C4 mph, E0%10000m1026hPa54%
21-Feb-2024 09:00Clear Sky8°C4 mph, E1%10000m1026hPa63%
21-Feb-2024 12:00Clear Sky7°C7 mph, E1%10000m1027hPa65%
21-Feb-2024 15:00Clear Sky12°C7 mph, E0%10000m1028hPa51%
21-Feb-2024 18:00Clear Sky16°C7 mph, SE1%10000m1026hPa40%
21-Feb-2024 21:00Few Clouds17°C4 mph, SE13%10000m1023hPa37%
22-Feb-2024 00:00Few Clouds13°C4 mph, SE17%10000m1024hPa49%
22-Feb-2024 03:00Overcast Clouds11°C7 mph, SE100%10000m1023hPa56%
22-Feb-2024 06:00Overcast Clouds10°C7 mph, SE99%10000m1022hPa59%
22-Feb-2024 09:00Overcast Clouds8°C7 mph, S99%10000m1021hPa65%
22-Feb-2024 12:00Scattered Clouds8°C7 mph, S50%10000m1021hPa67%
22-Feb-2024 15:00Clear Sky13°C11 mph, S2%10000m1020hPa54%
22-Feb-2024 18:00Scattered Clouds18°C16 mph, SW29%10000m1016hPa41%
22-Feb-2024 21:00Overcast Clouds20°C16 mph, SW87%10000m1013hPa44%
23-Feb-2024 00:00Overcast Clouds16°C16 mph, SW93%10000m1012hPa54%
23-Feb-2024 03:00Overcast Clouds16°C16 mph, SW85%10000m1011hPa67%
23-Feb-2024 06:00Overcast Clouds15°C16 mph, SW93%10000m1009hPa75%
23-Feb-2024 09:00Light Rain16°C13 mph, SW100%10000m1006hPa85%
23-Feb-2024 12:00Light Rain15°C11 mph, SW98%10000m1006hPa89%
23-Feb-2024 15:00Overcast Clouds17°C13 mph, W100%10000m1006hPa83%
23-Feb-2024 18:00Light Rain17°C13 mph, W100%10000m1006hPa73%
23-Feb-2024 21:00Scattered Clouds21°C16 mph, NW50%10000m1005hPa43%
24-Feb-2024 00:00Scattered Clouds16°C11 mph, NW25%10000m1008hPa48%
24-Feb-2024 03:00Clear Sky12°C7 mph, NW0%10000m1011hPa62%
24-Feb-2024 06:00Clear Sky11°C11 mph, NW0%10000m1012hPa60%
24-Feb-2024 09:00Clear Sky9°C11 mph, NW0%10000m1013hPa66%
24-Feb-2024 12:00Clear Sky7°C7 mph, NW0%10000m1015hPa74%
24-Feb-2024 15:00Clear Sky13°C9 mph, NW0%10000m1017hPa55%
24-Feb-2024 18:00Clear Sky18°C16 mph, W1%10000m1015hPa38%
24-Feb-2024 21:00Overcast Clouds19°C16 mph, W98%10000m1014hPa37%
25-Feb-2024 00:00Broken Clouds15°C11 mph, NW70%10000m1016hPa47%
25-Feb-2024 03:00Clear Sky11°C9 mph, NW2%10000m1020hPa54%
25-Feb-2024 06:00Clear Sky9°C7 mph, N1%10000m1021hPa64%
25-Feb-2024 09:00Clear Sky7°C7 mph, N0%10000m1022hPa71%
25-Feb-2024 12:00Clear Sky5°C4 mph, NE0%10000m1023hPa77%
25-Feb-2024 15:00Clear Sky11°C4 mph, NE2%10000m1025hPa51%
25-Feb-2024 18:00Clear Sky16°C2 mph, NE10%10000m1023hPa35%
25-Feb-2024 21:00Overcast Clouds17°C4 mph, SW85%10000m1021hPa33%
26-Feb-2024 00:00Broken Clouds13°C4 mph, S76%10000m1022hPa45%